sensor_id;sensor_type;location;lat;lon;timestamp;P1;durP1;ratioP1;P2;durP2;ratioP2
18274;SDS011;19470;49.322;7.218;2023-02-10T00:02:23;34.83;;;16.10;;
18274;SDS011;19470;49.322;7.218;2023-02-10T00:04:50;37.10;;;17.30;;
18274;SDS011;19470;49.322;7.218;2023-02-10T00:07:17;37.00;;;15.90;;
18274;SDS011;19470;49.322;7.218;2023-02-10T00:09:43;34.97;;;17.20;;
18274;SDS011;19470;49.322;7.218;2023-02-10T00:12:10;33.73;;;15.70;;
18274;SDS011;19470;49.322;7.218;2023-02-10T00:14:37;31.63;;;15.70;;
18274;SDS011;19470;49.322;7.218;2023-02-10T00:17:04;36.70;;;17.23;;
18274;SDS011;19470;49.322;7.218;2023-02-10T00:19:31;32.70;;;16.00;;
18274;SDS011;19470;49.322;7.218;2023-02-10T00:21:58;32.87;;;16.37;;
18274;SDS011;19470;49.322;7.218;2023-02-10T00:24:25;36.03;;;15.77;;
18274;SDS011;19470;49.322;7.218;2023-02-10T00:26:53;34.63;;;15.93;;
18274;SDS011;19470;49.322;7.218;2023-02-10T00:29:19;34.47;;;16.53;;
18274;SDS011;19470;49.322;7.218;2023-02-10T00:31:46;36.17;;;18.10;;
18274;SDS011;19470;49.322;7.218;2023-02-10T00:34:13;34.53;;;16.40;;
18274;SDS011;19470;49.322;7.218;2023-02-10T00:36:42;31.40;;;15.40;;
18274;SDS011;19470;49.322;7.218;2023-02-10T00:39:11;29.73;;;16.03;;
18274;SDS011;19470;49.322;7.218;2023-02-10T00:41:39;32.73;;;16.00;;
18274;SDS011;19470;49.322;7.218;2023-02-10T00:44:06;31.47;;;16.03;;
18274;SDS011;19470;49.322;7.218;2023-02-10T00:46:32;37.03;;;17.63;;
18274;SDS011;19470;49.322;7.218;2023-02-10T00:48:59;30.83;;;14.97;;
18274;SDS011;19470;49.322;7.218;2023-02-10T00:51:26;33.67;;;15.83;;
18274;SDS011;19470;49.322;7.218;2023-02-10T00:53:54;32.50;;;15.87;;
18274;SDS011;19470;49.322;7.218;2023-02-10T00:56:20;34.87;;;16.53;;
18274;SDS011;19470;49.322;7.218;2023-02-10T00:58:46;32.90;;;15.93;;
18274;SDS011;19470;49.322;7.218;2023-02-10T01:01:13;35.07;;;16.33;;
18274;SDS011;19470;49.322;7.218;2023-02-10T01:03:40;32.60;;;16.33;;
18274;SDS011;19470;49.322;7.218;2023-02-10T01:06:07;31.87;;;15.93;;
18274;SDS011;19470;49.322;7.218;2023-02-10T01:08:35;32.97;;;16.37;;
18274;SDS011;19470;49.322;7.218;2023-02-10T01:11:03;35.97;;;16.70;;
18274;SDS011;19470;49.322;7.218;2023-02-10T01:13:32;31.30;;;15.97;;
18274;SDS011;19470;49.322;7.218;2023-02-10T01:15:59;32.83;;;15.90;;
18274;SDS011;19470;49.322;7.218;2023-02-10T01:18:26;31.33;;;15.90;;
18274;SDS011;19470;49.322;7.218;2023-02-10T01:20:53;30.67;;;14.90;;
18274;SDS011;19470;49.322;7.218;2023-02-10T01:23:19;36.37;;;16.53;;
18274;SDS011;19470;49.322;7.218;2023-02-10T01:25:46;30.60;;;15.00;;
18274;SDS011;19470;49.322;7.218;2023-02-10T01:28:14;30.53;;;14.63;;
18274;SDS011;19470;49.322;7.218;2023-02-10T01:30:40;32.07;;;16.17;;
18274;SDS011;19470;49.322;7.218;2023-02-10T01:33:07;34.57;;;16.10;;
18274;SDS011;19470;49.322;7.218;2023-02-10T01:35:36;29.57;;;15.57;;
18274;SDS011;19470;49.322;7.218;2023-02-10T01:38:03;34.67;;;16.50;;
18274;SDS011;19470;49.322;7.218;2023-02-10T01:40:30;35.07;;;15.97;;
18274;SDS011;19470;49.322;7.218;2023-02-10T01:42:56;33.73;;;15.57;;
18274;SDS011;19470;49.322;7.218;2023-02-10T01:45:25;35.23;;;16.43;;
18274;SDS011;19470;49.322;7.218;2023-02-10T01:47:55;40.53;;;16.20;;
18274;SDS011;19470;49.322;7.218;2023-02-10T01:50:24;33.47;;;16.17;;
18274;SDS011;19470;49.322;7.218;2023-02-10T01:52:53;33.73;;;16.03;;
18274;SDS011;19470;49.322;7.218;2023-02-10T01:55:23;36.03;;;15.87;;
18274;SDS011;19470;49.322;7.218;2023-02-10T01:57:51;34.07;;;15.80;;
18274;SDS011;19470;49.322;7.218;2023-02-10T02:00:19;32.80;;;16.33;;
18274;SDS011;19470;49.322;7.218;2023-02-10T02:02:47;36.20;;;17.07;;
18274;SDS011;19470;49.322;7.218;2023-02-10T02:05:19;38.37;;;17.27;;
18274;SDS011;19470;49.322;7.218;2023-02-10T02:07:48;34.40;;;17.70;;
18274;SDS011;19470;49.322;7.218;2023-02-10T02:10:15;37.20;;;17.17;;
18274;SDS011;19470;49.322;7.218;2023-02-10T02:12:45;34.57;;;16.47;;
18274;SDS011;19470;49.322;7.218;2023-02-10T02:15:20;35.77;;;16.50;;
18274;SDS011;19470;49.322;7.218;2023-02-10T02:17:54;35.87;;;16.47;;
18274;SDS011;19470;49.322;7.218;2023-02-10T02:20:32;36.07;;;16.57;;
18274;SDS011;19470;49.322;7.218;2023-02-10T02:23:21;35.70;;;17.40;;
18274;SDS011;19470;49.322;7.218;2023-02-10T02:28:50;30.83;;;15.27;;
18274;SDS011;19470;49.322;7.218;2023-02-10T02:31:44;36.00;;;17.27;;
18274;SDS011;19470;49.322;7.218;2023-02-10T02:34:19;33.37;;;16.03;;
18274;SDS011;19470;49.322;7.218;2023-02-10T02:36:51;35.83;;;15.07;;
18274;SDS011;19470;49.322;7.218;2023-02-10T02:39:22;34.13;;;15.97;;
18274;SDS011;19470;49.322;7.218;2023-02-10T02:41:58;33.80;;;16.37;;
18274;SDS011;19470;49.322;7.218;2023-02-10T02:44:31;32.20;;;16.87;;
18274;SDS011;19470;49.322;7.218;2023-02-10T02:47:00;35.77;;;16.10;;
18274;SDS011;19470;49.322;7.218;2023-02-10T02:49:37;37.63;;;17.07;;
18274;SDS011;19470;49.322;7.218;2023-02-10T02:52:11;87.60;;;36.97;;
18274;SDS011;19470;49.322;7.218;2023-02-10T02:54:42;44.33;;;21.47;;
18274;SDS011;19470;49.322;7.218;2023-02-10T02:57:15;29.53;;;15.27;;
18274;SDS011;19470;49.322;7.218;2023-02-10T02:59:51;35.93;;;16.53;;
18274;SDS011;19470;49.322;7.218;2023-02-10T03:02:26;35.33;;;15.63;;
18274;SDS011;19470;49.322;7.218;2023-02-10T03:04:54;31.73;;;15.90;;
18274;SDS011;19470;49.322;7.218;2023-02-10T03:07:21;40.00;;;17.50;;
18274;SDS011;19470;49.322;7.218;2023-02-10T03:09:47;38.27;;;17.17;;
18274;SDS011;19470;49.322;7.218;2023-02-10T03:12:14;38.63;;;17.10;;
18274;SDS011;19470;49.322;7.218;2023-02-10T03:14:40;37.10;;;17.50;;
18274;SDS011;19470;49.322;7.218;2023-02-10T03:17:07;31.37;;;15.97;;
18274;SDS011;19470;49.322;7.218;2023-02-10T03:19:34;41.43;;;19.07;;
18274;SDS011;19470;49.322;7.218;2023-02-10T03:22:01;32.17;;;15.43;;
18274;SDS011;19470;49.322;7.218;2023-02-10T03:24:27;29.17;;;14.40;;
18274;SDS011;19470;49.322;7.218;2023-02-10T03:26:54;32.73;;;15.40;;
18274;SDS011;19470;49.322;7.218;2023-02-10T03:29:20;32.10;;;15.70;;
18274;SDS011;19470;49.322;7.218;2023-02-10T03:31:48;26.60;;;14.23;;
18274;SDS011;19470;49.322;7.218;2023-02-10T03:34:15;29.33;;;14.57;;
18274;SDS011;19470;49.322;7.218;2023-02-10T03:36:43;30.63;;;15.30;;
18274;SDS011;19470;49.322;7.218;2023-02-10T03:39:09;35.10;;;15.50;;
18274;SDS011;19470;49.322;7.218;2023-02-10T03:41:36;35.30;;;15.20;;
18274;SDS011;19470;49.322;7.218;2023-02-10T03:44:02;39.20;;;15.87;;
18274;SDS011;19470;49.322;7.218;2023-02-10T03:46:29;37.27;;;16.40;;
18274;SDS011;19470;49.322;7.218;2023-02-10T03:48:56;36.20;;;16.37;;
18274;SDS011;19470;49.322;7.218;2023-02-10T03:51:22;38.47;;;16.67;;
18274;SDS011;19470;49.322;7.218;2023-02-10T03:53:50;34.20;;;16.63;;
18274;SDS011;19470;49.322;7.218;2023-02-10T03:56:16;33.13;;;16.93;;
18274;SDS011;19470;49.322;7.218;2023-02-10T03:58:43;31.60;;;15.93;;
18274;SDS011;19470;49.322;7.218;2023-02-10T04:01:10;33.23;;;15.50;;
18274;SDS011;19470;49.322;7.218;2023-02-10T04:03:39;33.43;;;16.40;;
18274;SDS011;19470;49.322;7.218;2023-02-10T04:06:06;36.07;;;17.30;;
18274;SDS011;19470;49.322;7.218;2023-02-10T04:08:33;32.23;;;16.33;;
18274;SDS011;19470;49.322;7.218;2023-02-10T04:11:01;31.47;;;16.70;;
18274;SDS011;19470;49.322;7.218;2023-02-10T04:13:28;37.37;;;16.97;;
18274;SDS011;19470;49.322;7.218;2023-02-10T04:16:01;38.47;;;18.30;;
18274;SDS011;19470;49.322;7.218;2023-02-10T04:18:28;37.97;;;18.50;;
18274;SDS011;19470;49.322;7.218;2023-02-10T04:20:54;38.57;;;19.03;;
18274;SDS011;19470;49.322;7.218;2023-02-10T04:23:21;38.83;;;19.47;;
18274;SDS011;19470;49.322;7.218;2023-02-10T04:25:48;39.47;;;19.33;;
18274;SDS011;19470;49.322;7.218;2023-02-10T04:28:15;41.47;;;17.80;;
18274;SDS011;19470;49.322;7.218;2023-02-10T04:30:42;38.87;;;18.83;;
18274;SDS011;19470;49.322;7.218;2023-02-10T04:33:08;45.20;;;20.43;;
18274;SDS011;19470;49.322;7.218;2023-02-10T04:35:35;43.73;;;19.30;;
18274;SDS011;19470;49.322;7.218;2023-02-10T04:38:01;42.07;;;18.47;;
18274;SDS011;19470;49.322;7.218;2023-02-10T04:40:28;40.73;;;19.10;;
18274;SDS011;19470;49.322;7.218;2023-02-10T04:42:55;69.07;;;27.83;;
18274;SDS011;19470;49.322;7.218;2023-02-10T04:45:23;66.50;;;28.80;;
18274;SDS011;19470;49.322;7.218;2023-02-10T04:47:49;43.87;;;19.43;;
18274;SDS011;19470;49.322;7.218;2023-02-10T04:50:16;39.00;;;18.00;;
18274;SDS011;19470;49.322;7.218;2023-02-10T04:52:42;43.70;;;18.77;;
18274;SDS011;19470;49.322;7.218;2023-02-10T04:55:09;38.67;;;18.37;;
18274;SDS011;19470;49.322;7.218;2023-02-10T04:57:35;83.33;;;37.63;;
18274;SDS011;19470;49.322;7.218;2023-02-10T05:00:02;61.20;;;28.10;;
18274;SDS011;19470;49.322;7.218;2023-02-10T05:02:31;37.10;;;18.30;;
18274;SDS011;19470;49.322;7.218;2023-02-10T05:04:57;39.00;;;16.77;;
18274;SDS011;19470;49.322;7.218;2023-02-10T05:07:24;38.20;;;17.97;;
18274;SDS011;19470;49.322;7.218;2023-02-10T05:09:51;31.97;;;16.80;;
18274;SDS011;19470;49.322;7.218;2023-02-10T05:12:17;37.63;;;18.10;;
18274;SDS011;19470;49.322;7.218;2023-02-10T05:14:44;40.13;;;18.47;;
18274;SDS011;19470;49.322;7.218;2023-02-10T05:17:10;40.63;;;18.33;;
18274;SDS011;19470;49.322;7.218;2023-02-10T05:19:38;60.87;;;24.87;;
18274;SDS011;19470;49.322;7.218;2023-02-10T05:22:05;66.00;;;29.63;;
18274;SDS011;19470;49.322;7.218;2023-02-10T05:24:31;35.77;;;18.13;;
18274;SDS011;19470;49.322;7.218;2023-02-10T05:26:58;48.17;;;23.07;;
18274;SDS011;19470;49.322;7.218;2023-02-10T05:29:25;37.10;;;16.60;;
18274;SDS011;19470;49.322;7.218;2023-02-10T05:31:51;39.43;;;18.53;;
18274;SDS011;19470;49.322;7.218;2023-02-10T05:34:18;36.53;;;18.50;;
18274;SDS011;19470;49.322;7.218;2023-02-10T05:36:45;37.13;;;18.53;;
18274;SDS011;19470;49.322;7.218;2023-02-10T05:39:12;40.63;;;18.87;;
18274;SDS011;19470;49.322;7.218;2023-02-10T05:41:51;38.47;;;19.00;;
18274;SDS011;19470;49.322;7.218;2023-02-10T05:44:18;37.50;;;18.40;;
18274;SDS011;19470;49.322;7.218;2023-02-10T05:46:45;41.67;;;19.70;;
18274;SDS011;19470;49.322;7.218;2023-02-10T05:49:11;48.47;;;21.23;;
18274;SDS011;19470;49.322;7.218;2023-02-10T05:51:38;47.83;;;21.07;;
18274;SDS011;19470;49.322;7.218;2023-02-10T05:54:06;41.47;;;19.87;;
18274;SDS011;19470;49.322;7.218;2023-02-10T05:56:33;42.07;;;21.43;;
18274;SDS011;19470;49.322;7.218;2023-02-10T05:59:00;46.57;;;22.13;;
18274;SDS011;19470;49.322;7.218;2023-02-10T06:01:26;37.63;;;19.73;;
18274;SDS011;19470;49.322;7.218;2023-02-10T06:03:53;53.97;;;22.77;;
18274;SDS011;19470;49.322;7.218;2023-02-10T06:06:19;53.60;;;23.17;;
18274;SDS011;19470;49.322;7.218;2023-02-10T06:08:46;48.33;;;23.50;;
18274;SDS011;19470;49.322;7.218;2023-02-10T06:11:14;85.77;;;35.77;;
18274;SDS011;19470;49.322;7.218;2023-02-10T06:13:41;90.50;;;39.93;;
18274;SDS011;19470;49.322;7.218;2023-02-10T06:16:08;46.10;;;21.93;;
18274;SDS011;19470;49.322;7.218;2023-02-10T06:18:36;49.07;;;21.87;;
18274;SDS011;19470;49.322;7.218;2023-02-10T06:21:03;46.10;;;21.37;;
18274;SDS011;19470;49.322;7.218;2023-02-10T06:23:29;47.67;;;22.50;;
18274;SDS011;19470;49.322;7.218;2023-02-10T06:25:56;43.57;;;21.23;;
18274;SDS011;19470;49.322;7.218;2023-02-10T06:31:46;45.33;;;21.70;;
18274;SDS011;19470;49.322;7.218;2023-02-10T06:34:13;51.53;;;23.60;;
18274;SDS011;19470;49.322;7.218;2023-02-10T06:36:39;59.83;;;27.83;;
18274;SDS011;19470;49.322;7.218;2023-02-10T06:39:06;52.40;;;26.03;;
18274;SDS011;19470;49.322;7.218;2023-02-10T06:41:32;46.60;;;24.97;;
18274;SDS011;19470;49.322;7.218;2023-02-10T06:43:59;47.47;;;22.80;;
18274;SDS011;19470;49.322;7.218;2023-02-10T06:46:26;47.67;;;21.90;;
18274;SDS011;19470;49.322;7.218;2023-02-10T06:48:54;158.13;;;59.30;;
18274;SDS011;19470;49.322;7.218;2023-02-10T06:51:21;64.33;;;30.10;;
18274;SDS011;19470;49.322;7.218;2023-02-10T06:53:47;129.60;;;55.07;;
18274;SDS011;19470;49.322;7.218;2023-02-10T06:56:14;46.33;;;22.17;;
18274;SDS011;19470;49.322;7.218;2023-02-10T06:58:40;51.90;;;24.23;;
18274;SDS011;19470;49.322;7.218;2023-02-10T07:01:07;44.87;;;23.03;;
18274;SDS011;19470;49.322;7.218;2023-02-10T07:03:34;44.83;;;22.37;;
18274;SDS011;19470;49.322;7.218;2023-02-10T07:06:02;44.03;;;22.57;;
18274;SDS011;19470;49.322;7.218;2023-02-10T07:08:28;48.10;;;22.53;;
18274;SDS011;19470;49.322;7.218;2023-02-10T07:10:55;42.83;;;21.27;;
18274;SDS011;19470;49.322;7.218;2023-02-10T07:13:21;42.20;;;21.13;;
18274;SDS011;19470;49.322;7.218;2023-02-10T07:15:48;51.53;;;23.77;;
18274;SDS011;19470;49.322;7.218;2023-02-10T07:18:14;47.80;;;23.63;;
18274;SDS011;19470;49.322;7.218;2023-02-10T07:20:41;47.03;;;23.53;;
18274;SDS011;19470;49.322;7.218;2023-02-10T07:23:09;54.30;;;26.70;;
18274;SDS011;19470;49.322;7.218;2023-02-10T07:25:35;112.73;;;49.47;;
18274;SDS011;19470;49.322;7.218;2023-02-10T07:28:02;55.87;;;27.57;;
18274;SDS011;19470;49.322;7.218;2023-02-10T07:30:28;49.03;;;23.73;;
18274;SDS011;19470;49.322;7.218;2023-02-10T07:32:55;49.77;;;24.60;;
18274;SDS011;19470;49.322;7.218;2023-02-10T07:35:22;53.93;;;24.53;;
18274;SDS011;19470;49.322;7.218;2023-02-10T07:37:48;41.40;;;21.67;;
18274;SDS011;19470;49.322;7.218;2023-02-10T07:40:16;42.30;;;22.60;;
18274;SDS011;19470;49.322;7.218;2023-02-10T07:42:42;48.47;;;23.93;;
18274;SDS011;19470;49.322;7.218;2023-02-10T07:45:09;49.00;;;23.83;;
18274;SDS011;19470;49.322;7.218;2023-02-10T07:47:36;48.57;;;23.53;;
18274;SDS011;19470;49.322;7.218;2023-02-10T07:50:02;43.93;;;23.67;;
18274;SDS011;19470;49.322;7.218;2023-02-10T07:52:29;102.73;;;43.87;;
18274;SDS011;19470;49.322;7.218;2023-02-10T07:54:56;52.03;;;25.20;;
18274;SDS011;19470;49.322;7.218;2023-02-10T07:57:24;51.23;;;24.10;;
18274;SDS011;19470;49.322;7.218;2023-02-10T07:59:51;46.53;;;23.73;;
18274;SDS011;19470;49.322;7.218;2023-02-10T08:02:17;46.67;;;24.10;;
18274;SDS011;19470;49.322;7.218;2023-02-10T08:04:44;42.90;;;22.23;;
18274;SDS011;19470;49.322;7.218;2023-02-10T08:07:11;48.10;;;23.70;;
18274;SDS011;19470;49.322;7.218;2023-02-10T08:09:37;47.20;;;24.07;;
18274;SDS011;19470;49.322;7.218;2023-02-10T08:12:04;45.57;;;23.80;;
18274;SDS011;19470;49.322;7.218;2023-02-10T08:14:32;50.40;;;24.10;;
18274;SDS011;19470;49.322;7.218;2023-02-10T08:16:59;49.23;;;24.60;;
18274;SDS011;19470;49.322;7.218;2023-02-10T08:19:25;44.23;;;23.87;;
18274;SDS011;19470;49.322;7.218;2023-02-10T08:21:52;45.97;;;24.10;;
18274;SDS011;19470;49.322;7.218;2023-02-10T08:24:18;44.67;;;22.93;;
18274;SDS011;19470;49.322;7.218;2023-02-10T08:26:45;42.87;;;22.97;;
18274;SDS011;19470;49.322;7.218;2023-02-10T08:29:11;41.80;;;22.50;;
18274;SDS011;19470;49.322;7.218;2023-02-10T08:31:39;44.83;;;22.13;;
18274;SDS011;19470;49.322;7.218;2023-02-10T08:34:10;48.63;;;23.00;;
18274;SDS011;19470;49.322;7.218;2023-02-10T08:36:40;45.13;;;24.20;;
18274;SDS011;19470;49.322;7.218;2023-02-10T08:39:07;48.07;;;25.10;;
18274;SDS011;19470;49.322;7.218;2023-02-10T08:41:34;41.40;;;23.60;;
18274;SDS011;19470;49.322;7.218;2023-02-10T08:44:01;42.30;;;22.80;;
18274;SDS011;19470;49.322;7.218;2023-02-10T08:46:28;54.80;;;23.17;;
18274;SDS011;19470;49.322;7.218;2023-02-10T08:48:56;47.77;;;23.57;;
18274;SDS011;19470;49.322;7.218;2023-02-10T08:51:25;41.60;;;21.93;;
18274;SDS011;19470;49.322;7.218;2023-02-10T08:53:52;39.30;;;22.93;;
18274;SDS011;19470;49.322;7.218;2023-02-10T08:56:20;41.10;;;21.83;;
18274;SDS011;19470;49.322;7.218;2023-02-10T08:58:46;41.47;;;21.77;;
18274;SDS011;19470;49.322;7.218;2023-02-10T09:01:13;40.23;;;21.90;;
18274;SDS011;19470;49.322;7.218;2023-02-10T09:03:42;43.37;;;22.47;;
18274;SDS011;19470;49.322;7.218;2023-02-10T09:06:13;49.07;;;23.77;;
18274;SDS011;19470;49.322;7.218;2023-02-10T09:08:41;38.27;;;21.47;;
18274;SDS011;19470;49.322;7.218;2023-02-10T09:11:08;44.50;;;23.33;;
18274;SDS011;19470;49.322;7.218;2023-02-10T09:13:34;40.93;;;21.27;;
18274;SDS011;19470;49.322;7.218;2023-02-10T09:16:01;38.00;;;20.87;;
18274;SDS011;19470;49.322;7.218;2023-02-10T09:18:27;41.33;;;21.40;;
18274;SDS011;19470;49.322;7.218;2023-02-10T09:20:56;41.53;;;22.17;;
18274;SDS011;19470;49.322;7.218;2023-02-10T09:23:24;38.83;;;21.37;;
18274;SDS011;19470;49.322;7.218;2023-02-10T09:25:53;41.65;;;21.92;;
18274;SDS011;19470;49.322;7.218;2023-02-10T09:28:20;43.33;;;22.33;;
18274;SDS011;19470;49.322;7.218;2023-02-10T09:30:47;37.90;;;21.05;;
18274;SDS011;19470;49.322;7.218;2023-02-10T09:33:14;44.58;;;22.92;;
18274;SDS011;19470;49.322;7.218;2023-02-10T09:35:40;45.55;;;22.42;;
18274;SDS011;19470;49.322;7.218;2023-02-10T09:38:07;232.75;;;47.15;;
18274;SDS011;19470;49.322;7.218;2023-02-10T09:40:37;66.97;;;23.52;;
18274;SDS011;19470;49.322;7.218;2023-02-10T09:43:16;40.77;;;22.03;;
18274;SDS011;19470;49.322;7.218;2023-02-10T09:45:51;41.20;;;21.73;;
18274;SDS011;19470;49.322;7.218;2023-02-10T09:48:28;42.53;;;21.80;;
18274;SDS011;19470;49.322;7.218;2023-02-10T09:51:01;41.20;;;22.27;;
18274;SDS011;19470;49.322;7.218;2023-02-10T09:53:33;42.58;;;22.48;;
18274;SDS011;19470;49.322;7.218;2023-02-10T09:56:01;38.53;;;21.73;;
18274;SDS011;19470;49.322;7.218;2023-02-10T09:58:31;38.53;;;22.08;;
18274;SDS011;19470;49.322;7.218;2023-02-10T10:01:01;41.10;;;22.35;;
18274;SDS011;19470;49.322;7.218;2023-02-10T10:03:34;39.60;;;21.83;;
18274;SDS011;19470;49.322;7.218;2023-02-10T10:06:10;43.22;;;22.75;;
18274;SDS011;19470;49.322;7.218;2023-02-10T10:08:44;38.78;;;22.17;;
18274;SDS011;19470;49.322;7.218;2023-02-10T10:11:22;39.47;;;21.92;;
18274;SDS011;19470;49.322;7.218;2023-02-10T10:13:51;41.55;;;21.73;;
18274;SDS011;19470;49.322;7.218;2023-02-10T10:16:19;39.75;;;21.58;;
18274;SDS011;19470;49.322;7.218;2023-02-10T10:18:58;39.85;;;21.30;;
18274;SDS011;19470;49.322;7.218;2023-02-10T10:21:36;38.45;;;21.00;;
18274;SDS011;19470;49.322;7.218;2023-02-10T10:24:13;44.10;;;22.95;;
18274;SDS011;19470;49.322;7.218;2023-02-10T10:26:56;42.58;;;22.27;;
18274;SDS011;19470;49.322;7.218;2023-02-10T10:29:35;40.72;;;22.10;;
18274;SDS011;19470;49.322;7.218;2023-02-10T10:32:12;41.33;;;21.77;;
18274;SDS011;19470;49.322;7.218;2023-02-10T10:34:42;47.70;;;22.67;;
18274;SDS011;19470;49.322;7.218;2023-02-10T10:37:16;42.40;;;22.77;;
18274;SDS011;19470;49.322;7.218;2023-02-10T10:39:45;39.65;;;22.30;;
18274;SDS011;19470;49.322;7.218;2023-02-10T10:42:19;42.42;;;22.70;;
18274;SDS011;19470;49.322;7.218;2023-02-10T10:44:50;47.75;;;25.23;;
18274;SDS011;19470;49.322;7.218;2023-02-10T10:47:21;43.17;;;22.38;;
18274;SDS011;19470;49.322;7.218;2023-02-10T10:50:00;46.88;;;25.33;;
18274;SDS011;19470;49.322;7.218;2023-02-10T10:52:29;43.47;;;22.58;;
18274;SDS011;19470;49.322;7.218;2023-02-10T10:54:58;39.70;;;21.45;;
18274;SDS011;19470;49.322;7.218;2023-02-10T10:57:28;35.72;;;21.23;;
18274;SDS011;19470;49.322;7.218;2023-02-10T10:59:58;36.50;;;21.00;;
18274;SDS011;19470;49.322;7.218;2023-02-10T11:02:32;40.75;;;21.73;;
18274;SDS011;19470;49.322;7.218;2023-02-10T11:04:59;40.10;;;22.83;;
18274;SDS011;19470;49.322;7.218;2023-02-10T11:07:27;37.92;;;23.10;;
18274;SDS011;19470;49.322;7.218;2023-02-10T11:09:57;38.40;;;22.52;;
18274;SDS011;19470;49.322;7.218;2023-02-10T11:12:27;39.60;;;22.65;;
18274;SDS011;19470;49.322;7.218;2023-02-10T11:14:58;35.03;;;22.90;;
18274;SDS011;19470;49.322;7.218;2023-02-10T11:17:28;39.13;;;25.52;;
18274;SDS011;19470;49.322;7.218;2023-02-10T11:20:00;44.35;;;37.17;;
18274;SDS011;19470;49.322;7.218;2023-02-10T11:22:54;58.65;;;52.75;;
18274;SDS011;19470;49.322;7.218;2023-02-10T11:25:24;87.25;;;79.75;;
18274;SDS011;19470;49.322;7.218;2023-02-10T11:27:54;136.23;;;126.50;;
18274;SDS011;19470;49.322;7.218;2023-02-10T11:30:24;65.20;;;59.45;;
18274;SDS011;19470;49.322;7.218;2023-02-10T11:32:51;81.30;;;74.47;;
18274;SDS011;19470;49.322;7.218;2023-02-10T11:35:18;88.05;;;80.63;;
18274;SDS011;19470;49.322;7.218;2023-02-10T11:37:44;106.07;;;97.70;;
18274;SDS011;19470;49.322;7.218;2023-02-10T11:40:20;138.63;;;128.73;;
18274;SDS011;19470;49.322;7.218;2023-02-10T11:42:49;91.53;;;83.85;;
18274;SDS011;19470;49.322;7.218;2023-02-10T11:45:19;61.15;;;55.03;;
18274;SDS011;19470;49.322;7.218;2023-02-10T11:47:58;63.20;;;57.17;;
18274;SDS011;19470;49.322;7.218;2023-02-10T11:50:27;177.20;;;165.68;;
18274;SDS011;19470;49.322;7.218;2023-02-10T11:52:56;207.73;;;194.75;;
18274;SDS011;19470;49.322;7.218;2023-02-10T11:55:24;271.52;;;255.10;;
18274;SDS011;19470;49.322;7.218;2023-02-10T11:57:58;398.35;;;374.48;;
18274;SDS011;19470;49.322;7.218;2023-02-10T12:01:24;228.30;;;213.52;;
18274;SDS011;19470;49.322;7.218;2023-02-10T12:04:00;285.10;;;267.73;;
18274;SDS011;19470;49.322;7.218;2023-02-10T12:06:33;550.03;;;515.97;;
18274;SDS011;19470;49.322;7.218;2023-02-10T12:09:05;610.45;;;569.80;;
18274;SDS011;19470;49.322;7.218;2023-02-10T12:11:43;381.48;;;358.17;;
18274;SDS011;19470;49.322;7.218;2023-02-10T12:14:28;259.02;;;243.15;;
18274;SDS011;19470;49.322;7.218;2023-02-10T12:17:09;154.02;;;143.10;;
18274;SDS011;19470;49.322;7.218;2023-02-10T12:19:52;47.47;;;41.25;;
18274;SDS011;19470;49.322;7.218;2023-02-10T12:22:43;34.65;;;26.08;;
18274;SDS011;19470;49.322;7.218;2023-02-10T12:25:23;45.95;;;40.40;;
18274;SDS011;19470;49.322;7.218;2023-02-10T12:27:57;41.83;;;27.67;;
18274;SDS011;19470;49.322;7.218;2023-02-10T12:30:33;97.10;;;89.78;;
18274;SDS011;19470;49.322;7.218;2023-02-10T12:33:19;451.05;;;424.23;;
18274;SDS011;19470;49.322;7.218;2023-02-10T12:35:59;890.95;;;828.88;;
18274;SDS011;19470;49.322;7.218;2023-02-10T12:38:37;890.28;;;827.83;;
18274;SDS011;19470;49.322;7.218;2023-02-10T12:41:16;1023.42;;;937.47;;
18274;SDS011;19470;49.322;7.218;2023-02-10T12:43:51;1999.90;;;999.90;;
18274;SDS011;19470;49.322;7.218;2023-02-10T12:46:27;1999.90;;;999.90;;
18274;SDS011;19470;49.322;7.218;2023-02-10T12:49:11;1999.90;;;999.90;;
18274;SDS011;19470;49.322;7.218;2023-02-10T12:51:50;1999.90;;;999.90;;
18274;SDS011;19470;49.322;7.218;2023-02-10T12:54:29;1007.38;;;926.10;;
18274;SDS011;19470;49.322;7.218;2023-02-10T12:57:00;874.45;;;812.60;;
18274;SDS011;19470;49.322;7.218;2023-02-10T12:59:34;553.53;;;519.17;;
18274;SDS011;19470;49.322;7.218;2023-02-10T13:02:10;887.25;;;823.00;;
18274;SDS011;19470;49.322;7.218;2023-02-10T13:04:43;898.17;;;833.58;;
18274;SDS011;19470;49.322;7.218;2023-02-10T13:07:13;999.72;;;922.38;;
18274;SDS011;19470;49.322;7.218;2023-02-10T13:09:47;1999.90;;;999.90;;
18274;SDS011;19470;49.322;7.218;2023-02-10T13:12:21;1013.47;;;934.13;;
18274;SDS011;19470;49.322;7.218;2023-02-10T13:14:51;951.47;;;880.08;;
18274;SDS011;19470;49.322;7.218;2023-02-10T13:17:20;844.85;;;785.50;;
18274;SDS011;19470;49.322;7.218;2023-02-10T13:19:57;976.50;;;903.28;;
18274;SDS011;19470;49.322;7.218;2023-02-10T13:22:33;953.17;;;881.63;;
18274;SDS011;19470;49.322;7.218;2023-02-10T13:25:11;444.48;;;412.65;;
18274;SDS011;19470;49.322;7.218;2023-02-10T13:27:46;105.85;;;97.93;;
18274;SDS011;19470;49.322;7.218;2023-02-10T13:33:37;239.82;;;225.30;;
18274;SDS011;19470;49.322;7.218;2023-02-10T13:36:13;397.83;;;374.55;;
18274;SDS011;19470;49.322;7.218;2023-02-10T13:38:45;417.75;;;392.23;;
18274;SDS011;19470;49.322;7.218;2023-02-10T13:41:22;120.03;;;111.32;;
18274;SDS011;19470;49.322;7.218;2023-02-10T13:44:16;77.18;;;71.05;;
18274;SDS011;19470;49.322;7.218;2023-02-10T13:46:46;38.53;;;34.47;;
18274;SDS011;19470;49.322;7.218;2023-02-10T13:49:19;44.55;;;39.90;;
18274;SDS011;19470;49.322;7.218;2023-02-10T13:51:49;113.18;;;96.22;;
18274;SDS011;19470;49.322;7.218;2023-02-10T13:54:25;32.67;;;21.83;;
18274;SDS011;19470;49.322;7.218;2023-02-10T13:56:54;39.83;;;27.98;;
18274;SDS011;19470;49.322;7.218;2023-02-10T13:59:26;64.70;;;59.17;;
18274;SDS011;19470;49.322;7.218;2023-02-10T14:02:02;35.70;;;24.85;;
18274;SDS011;19470;49.322;7.218;2023-02-10T14:04:38;34.58;;;22.88;;
18274;SDS011;19470;49.322;7.218;2023-02-10T14:07:15;39.08;;;30.20;;
18274;SDS011;19470;49.322;7.218;2023-02-10T14:10:00;57.00;;;51.42;;
18274;SDS011;19470;49.322;7.218;2023-02-10T14:12:30;74.22;;;67.68;;
18274;SDS011;19470;49.322;7.218;2023-02-10T14:15:12;107.97;;;99.45;;
18274;SDS011;19470;49.322;7.218;2023-02-10T14:17:51;255.73;;;240.35;;
18274;SDS011;19470;49.322;7.218;2023-02-10T14:20:24;156.07;;;145.55;;
18274;SDS011;19470;49.322;7.218;2023-02-10T14:22:57;127.72;;;118.00;;
18274;SDS011;19470;49.322;7.218;2023-02-10T14:25:29;112.63;;;104.20;;
18274;SDS011;19470;49.322;7.218;2023-02-10T14:28:02;116.20;;;107.55;;
18274;SDS011;19470;49.322;7.218;2023-02-10T14:30:36;74.70;;;68.25;;
18274;SDS011;19470;49.322;7.218;2023-02-10T14:33:12;48.28;;;42.65;;
18274;SDS011;19470;49.322;7.218;2023-02-10T14:35:48;56.47;;;50.92;;
18274;SDS011;19470;49.322;7.218;2023-02-10T14:38:19;63.25;;;56.65;;
18274;SDS011;19470;49.322;7.218;2023-02-10T14:40:47;84.47;;;77.10;;
18274;SDS011;19470;49.322;7.218;2023-02-10T14:43:15;308.05;;;289.42;;
18274;SDS011;19470;49.322;7.218;2023-02-10T14:45:46;363.20;;;340.92;;